createdAt,value
2023-07-19T00:00:06.012Z,0.57
2023-07-19T00:01:06.002Z,0.57
2023-07-19T00:02:05.999Z,0.57
2023-07-19T00:03:05.959Z,0.57
2023-07-19T00:04:05.921Z,0.56
2023-07-19T00:05:05.906Z,0.56
2023-07-19T00:06:05.889Z,0.57
2023-07-19T00:07:05.910Z,0.57
2023-07-19T00:08:05.845Z,0.57
2023-07-19T00:09:05.855Z,0.56
2023-07-19T00:10:05.839Z,0.56
2023-07-19T00:11:05.786Z,0.55
2023-07-19T00:12:05.793Z,0.56
2023-07-19T00:13:05.759Z,0.55
2023-07-19T00:14:05.742Z,0.55
2023-07-19T00:15:05.725Z,0.54
2023-07-19T00:16:05.708Z,0.52
2023-07-19T00:17:05.674Z,0.53
2023-07-19T00:18:05.692Z,0.52
2023-07-19T00:20:05.601Z,0.52
2023-07-19T00:21:05.588Z,0.52
2023-07-19T00:22:05.617Z,0.54
2023-07-19T00:23:05.594Z,0.57
2023-07-19T00:24:05.525Z,0.59
2023-07-19T00:25:05.503Z,0.61
2023-07-19T00:26:05.502Z,0.62
2023-07-19T00:27:05.532Z,0.65
2023-07-19T00:28:05.528Z,0.69
2023-07-19T00:29:05.559Z,0.73
2023-07-19T00:30:05.582Z,0.83
2023-07-19T00:31:05.611Z,0.87
2023-07-19T00:32:05.670Z,0.92
2023-07-19T00:33:05.739Z,0.96
2023-07-19T00:34:05.796Z,1.01
2023-07-19T00:35:05.740Z,1.01
2023-07-19T00:36:05.733Z,1.02
2023-07-19T00:37:05.719Z,1.04
2023-07-19T00:38:05.681Z,1.08
2023-07-19T00:39:05.638Z,1.17
2023-07-19T00:40:05.670Z,1.19
2023-07-19T00:41:05.581Z,1.20
2023-07-19T00:42:05.559Z,1.24
2023-07-19T00:43:05.548Z,1.26
2023-07-19T00:44:05.622Z,1.28
2023-07-19T00:45:05.635Z,1.36
2023-07-19T00:46:05.681Z,1.34
2023-07-19T00:47:05.717Z,1.35
2023-07-19T00:48:05.783Z,1.38
2023-07-19T00:49:05.806Z,1.41
2023-07-19T00:50:05.873Z,1.42
2023-07-19T00:51:05.814Z,1.42
2023-07-19T00:52:05.799Z,1.43
2023-07-19T00:53:05.773Z,1.43
2023-07-19T00:54:05.762Z,1.47
2023-07-19T00:55:05.727Z,1.51
2023-07-19T00:56:05.710Z,1.49
2023-07-19T00:57:05.664Z,1.53
2023-07-19T00:58:05.666Z,1.54
2023-07-19T00:59:05.636Z,1.54
2023-07-19T01:00:05.623Z,1.53
2023-07-19T01:01:05.681Z,1.56
2023-07-19T01:02:05.705Z,1.59
2023-07-19T01:03:05.799Z,1.57
2023-07-19T01:04:05.755Z,1.59
2023-07-19T01:05:05.832Z,1.61
2023-07-19T01:06:05.816Z,1.60
2023-07-19T01:07:05.860Z,1.62
2023-07-19T01:08:05.925Z,1.60
2023-07-19T01:09:05.926Z,1.63
2023-07-19T01:10:05.958Z,1.67
2023-07-19T01:11:05.998Z,1.64
2023-07-19T01:12:06.042Z,1.66
2023-07-19T01:13:06.054Z,1.66
2023-07-19T01:14:06.083Z,1.68
2023-07-19T01:15:06.102Z,1.70
2023-07-19T01:16:06.177Z,1.73
2023-07-19T01:17:06.179Z,1.74
2023-07-19T01:18:06.210Z,1.74
2023-07-19T01:19:06.229Z,1.77
2023-07-19T01:20:06.299Z,1.74
2023-07-19T01:21:25.792Z,1.75
2023-07-19T01:22:07.287Z,1.75
2023-07-19T01:23:06.364Z,1.76
2023-07-19T01:24:06.235Z,1.78
2023-07-19T01:25:06.202Z,1.75
2023-07-19T01:26:06.197Z,1.76
2023-07-19T01:27:17.265Z,1.77
2023-07-19T01:28:06.138Z,1.75
2023-07-19T01:29:06.118Z,1.77
2023-07-19T01:30:06.104Z,1.78
2023-07-19T01:31:06.126Z,1.80
2023-07-19T01:32:06.044Z,1.83
2023-07-19T01:33:11.951Z,1.82
2023-07-19T01:34:07.000Z,1.83
2023-07-19T01:35:05.981Z,1.83
2023-07-19T01:36:05.961Z,1.84
2023-07-19T01:37:05.931Z,1.81
2023-07-19T01:38:05.904Z,1.83
2023-07-19T01:39:05.881Z,1.85
2023-07-19T01:40:05.872Z,1.83
2023-07-19T01:41:05.838Z,1.84
2023-07-19T01:42:05.809Z,1.83
2023-07-19T01:43:05.774Z,1.83
2023-07-19T01:44:05.757Z,1.82
2023-07-19T01:45:05.726Z,1.83
2023-07-19T01:46:05.816Z,1.84
2023-07-19T01:47:05.715Z,1.80
2023-07-19T01:48:05.721Z,1.83
2023-07-19T01:49:05.747Z,1.81
2023-07-19T01:50:05.747Z,1.83
2023-07-19T01:51:05.778Z,1.81
2023-07-19T01:52:05.786Z,1.87
2023-07-19T01:53:05.817Z,1.86
2023-07-19T01:54:05.834Z,1.84
2023-07-19T01:55:05.854Z,1.86
2023-07-19T01:56:05.875Z,1.85
2023-07-19T01:57:05.897Z,1.86
2023-07-19T01:58:05.933Z,1.86
2023-07-19T01:59:05.954Z,1.88
2023-07-19T02:00:05.975Z,1.83
2023-07-19T02:01:06.080Z,1.83
2023-07-19T02:02:06.106Z,1.84
2023-07-19T02:03:06.090Z,1.82
2023-07-19T02:04:06.149Z,1.83
2023-07-19T02:05:06.082Z,1.83
2023-07-19T02:06:06.110Z,1.84
2023-07-19T02:07:06.122Z,1.83
2023-07-19T02:08:06.143Z,1.87
2023-07-19T02:09:06.167Z,1.88
2023-07-19T02:10:06.193Z,1.86
2023-07-19T02:11:06.219Z,1.88
2023-07-19T02:12:06.221Z,1.87
2023-07-19T02:13:06.251Z,1.85
2023-07-19T02:14:06.264Z,1.90
2023-07-19T02:15:06.323Z,1.91
2023-07-19T02:16:06.353Z,1.87
2023-07-19T02:17:06.327Z,1.88
2023-07-19T02:18:06.369Z,1.88
2023-07-19T02:19:06.363Z,1.88
2023-07-19T02:20:06.410Z,1.90
2023-07-19T02:21:06.408Z,1.88
2023-07-19T02:22:06.440Z,1.90
2023-07-19T02:23:06.464Z,1.87
2023-07-19T02:24:06.459Z,1.91
2023-07-19T02:25:06.480Z,1.91
2023-07-19T02:26:06.506Z,1.88
2023-07-19T02:27:06.551Z,1.91
2023-07-19T02:28:06.532Z,1.93
2023-07-19T02:29:06.554Z,1.92
2023-07-19T02:30:06.569Z,1.92
2023-07-19T02:31:06.520Z,1.92
2023-07-19T02:32:06.467Z,1.92
2023-07-19T02:33:06.492Z,1.95
2023-07-19T02:34:06.459Z,1.94
2023-07-19T02:35:06.394Z,1.94
2023-07-19T02:36:06.414Z,1.96
2023-07-19T02:37:06.348Z,1.97
2023-07-19T02:38:06.314Z,1.96
2023-07-19T02:39:06.288Z,1.99
2023-07-19T02:40:06.256Z,1.96
2023-07-19T02:41:06.262Z,1.98
2023-07-19T02:42:06.239Z,1.97
2023-07-19T02:43:06.217Z,1.98
2023-07-19T02:44:06.177Z,1.97
2023-07-19T02:45:06.196Z,1.92
2023-07-19T02:46:06.224Z,2.04
2023-07-19T02:47:06.186Z,2.04
2023-07-19T02:48:06.260Z,2.03
2023-07-19T02:49:06.145Z,2.02
2023-07-19T02:50:06.117Z,2.01
2023-07-19T02:51:06.117Z,2.01
2023-07-19T02:52:06.078Z,2.01
2023-07-19T02:53:06.044Z,2.00
2023-07-19T02:54:06.023Z,2.00
2023-07-19T02:55:06.008Z,2.01
2023-07-19T02:56:05.960Z,2.01
2023-07-19T02:57:05.949Z,2.02
2023-07-19T02:58:05.909Z,2.06
2023-07-19T02:59:05.917Z,2.00
2023-07-19T03:00:05.864Z,2.01
2023-07-19T03:01:05.876Z,2.00
2023-07-19T03:02:05.825Z,2.02
2023-07-19T03:03:05.877Z,2.02
2023-07-19T03:04:05.758Z,2.06
2023-07-19T03:05:05.732Z,2.10
2023-07-19T03:06:05.709Z,2.09
2023-07-19T03:07:05.706Z,2.09
2023-07-19T03:08:05.655Z,2.09
2023-07-19T03:09:05.647Z,2.09
2023-07-19T03:10:05.599Z,2.05
2023-07-19T03:11:05.578Z,2.04
2023-07-19T03:12:05.585Z,2.04
2023-07-19T03:13:05.569Z,2.04
2023-07-19T03:14:05.507Z,2.06
2023-07-19T03:15:05.514Z,2.04
2023-07-19T03:16:05.483Z,2.04
2023-07-19T03:17:05.463Z,2.04
2023-07-19T03:18:05.506Z,2.04
2023-07-19T03:19:05.450Z,2.05
2023-07-19T03:20:05.373Z,2.04
2023-07-19T03:21:05.356Z,2.07
2023-07-19T03:22:05.342Z,2.07
2023-07-19T03:23:05.361Z,2.06
2023-07-19T03:24:05.296Z,2.13
2023-07-19T03:25:05.286Z,2.11
2023-07-19T03:26:05.383Z,2.13
2023-07-19T03:27:05.223Z,2.08
2023-07-19T03:28:05.245Z,2.08
2023-07-19T03:29:05.266Z,2.07
2023-07-19T03:30:05.291Z,2.05
2023-07-19T03:31:05.393Z,2.04
2023-07-19T03:32:05.320Z,2.04
2023-07-19T03:33:05.359Z,2.04
2023-07-19T03:34:05.299Z,2.05
2023-07-19T03:35:05.261Z,2.06
2023-07-19T03:36:05.219Z,2.06
2023-07-19T03:37:05.205Z,2.07
2023-07-19T03:38:05.191Z,2.09
2023-07-19T03:39:05.149Z,2.05
2023-07-19T03:40:05.325Z,2.08
2023-07-19T03:41:05.105Z,2.08
2023-07-19T03:42:05.074Z,2.08
2023-07-19T03:43:05.063Z,2.09
2023-07-19T03:44:05.070Z,2.08
2023-07-19T03:45:05.044Z,2.08
2023-07-19T03:46:05.029Z,2.08
2023-07-19T03:47:04.984Z,2.09
2023-07-19T03:48:05.024Z,2.11
2023-07-19T03:49:04.925Z,2.10
2023-07-19T03:50:04.912Z,2.08
2023-07-19T03:51:05.505Z,2.11
2023-07-19T03:52:04.868Z,2.09
2023-07-19T03:53:04.833Z,2.08
2023-07-19T03:54:04.825Z,2.13
2023-07-19T03:55:04.809Z,2.06
2023-07-19T03:56:04.808Z,2.09
2023-07-19T03:57:04.758Z,2.11
2023-07-19T03:58:04.730Z,2.12
2023-07-19T03:59:04.714Z,2.11
2023-07-19T04:00:04.696Z,2.10
2023-07-19T04:01:04.677Z,2.05
2023-07-19T04:02:04.734Z,2.09
2023-07-19T04:03:04.693Z,2.05
2023-07-19T04:04:04.719Z,2.09
2023-07-19T04:05:04.713Z,2.09
2023-07-19T04:06:04.725Z,2.09
2023-07-19T04:07:04.750Z,2.06
2023-07-19T04:08:04.763Z,2.10
2023-07-19T04:09:04.750Z,2.09
2023-07-19T04:10:04.761Z,2.08
2023-07-19T04:11:04.760Z,2.11
2023-07-19T04:12:04.838Z,2.08
2023-07-19T04:13:04.784Z,2.09
2023-07-19T04:14:04.789Z,2.11
2023-07-19T04:15:04.804Z,2.09
2023-07-19T04:16:04.843Z,2.11
2023-07-19T04:17:04.817Z,2.11
2023-07-19T04:18:04.858Z,2.08
2023-07-19T04:19:04.811Z,2.10
2023-07-19T04:20:04.843Z,2.12
2023-07-19T04:21:04.818Z,2.12
2023-07-19T04:22:04.784Z,2.12
2023-07-19T04:23:04.783Z,2.13
2023-07-19T04:24:04.739Z,2.13
2023-07-19T04:25:04.757Z,2.12
2023-07-19T04:26:04.682Z,2.14
2023-07-19T04:27:04.650Z,2.13
2023-07-19T04:28:04.631Z,2.08
2023-07-19T04:29:04.632Z,2.12
2023-07-19T04:30:04.588Z,2.08
2023-07-19T04:31:04.558Z,2.10
2023-07-19T04:32:04.558Z,2.10
2023-07-19T04:33:04.587Z,2.11
2023-07-19T04:34:04.541Z,2.10
2023-07-19T04:35:04.471Z,2.11
2023-07-19T04:36:04.466Z,2.12
2023-07-19T04:37:04.441Z,2.13
2023-07-19T04:38:04.427Z,2.16
2023-07-19T04:39:04.360Z,2.19
2023-07-19T04:40:04.349Z,2.18
2023-07-19T04:41:04.328Z,2.11
2023-07-19T04:42:04.310Z,2.15
2023-07-19T04:43:04.269Z,2.12
2023-07-19T04:44:04.267Z,2.16
2023-07-19T04:45:04.228Z,2.15
2023-07-19T04:46:04.224Z,2.15
2023-07-19T04:47:04.159Z,2.16
2023-07-19T04:48:04.175Z,2.19
2023-07-19T04:49:04.111Z,2.19
2023-07-19T04:50:04.099Z,2.17
2023-07-19T04:51:04.076Z,2.19
2023-07-19T04:52:04.040Z,2.18
2023-07-19T04:53:04.021Z,2.18
2023-07-19T04:54:04.007Z,2.16
2023-07-19T04:55:03.967Z,2.20
2023-07-19T04:56:03.946Z,2.16
2023-07-19T04:57:03.939Z,2.21
2023-07-19T04:58:03.990Z,2.19
2023-07-19T04:59:03.889Z,2.18
2023-07-19T05:00:03.843Z,2.19
2023-07-19T05:01:03.833Z,2.19
2023-07-19T05:02:03.988Z,2.15
2023-07-19T05:03:03.834Z,2.18
2023-07-19T05:04:03.763Z,2.17
2023-07-19T05:05:03.807Z,2.22
2023-07-19T05:06:03.705Z,2.19
2023-07-19T05:07:03.660Z,2.15
2023-07-19T05:08:03.696Z,2.19
2023-07-19T05:09:03.711Z,2.19
2023-07-19T05:10:03.743Z,2.19
2023-07-19T05:11:03.746Z,2.18
2023-07-19T05:12:03.763Z,2.24
2023-07-19T05:13:03.804Z,2.16
2023-07-19T05:14:03.838Z,2.17
2023-07-19T05:15:03.867Z,2.14
2023-07-19T05:16:03.881Z,2.21
2023-07-19T05:17:03.990Z,2.19
2023-07-19T05:18:03.933Z,2.18
2023-07-19T05:19:03.992Z,2.27
2023-07-19T05:20:03.970Z,2.27
2023-07-19T05:21:03.989Z,2.24
2023-07-19T05:22:04.077Z,2.13
2023-07-19T05:23:04.083Z,2.17
2023-07-19T05:24:04.062Z,2.16
2023-07-19T05:25:04.081Z,2.22
2023-07-19T05:26:04.185Z,2.23
2023-07-19T05:27:04.127Z,2.22
2023-07-19T05:28:04.150Z,2.19
2023-07-19T05:29:04.173Z,2.22
2023-07-19T05:30:04.141Z,2.22
2023-07-19T05:31:04.201Z,2.22
2023-07-19T05:32:04.092Z,2.25
2023-07-19T05:33:04.583Z,2.26
2023-07-19T05:34:04.033Z,2.27
2023-07-19T05:35:03.999Z,2.33
2023-07-19T05:36:03.978Z,2.31
2023-07-19T05:37:03.965Z,2.38
2023-07-19T05:38:03.952Z,2.39
2023-07-19T05:39:03.899Z,2.35
2023-07-19T05:40:03.878Z,2.39
2023-07-19T05:41:03.864Z,2.44
2023-07-19T05:42:03.904Z,2.39
2023-07-19T05:43:03.821Z,2.44
2023-07-19T05:44:11.507Z,2.42
2023-07-19T05:45:04.759Z,2.42
2023-07-19T05:46:03.828Z,2.42
2023-07-19T05:47:03.737Z,2.44
2023-07-19T05:48:03.735Z,2.47
2023-07-19T05:49:03.645Z,2.49
2023-07-19T05:50:03.624Z,2.51
2023-07-19T05:51:03.593Z,2.60
2023-07-19T05:52:03.581Z,2.59
2023-07-19T05:53:03.529Z,2.60
2023-07-19T05:54:03.514Z,2.63
2023-07-19T05:55:06.308Z,2.63
2023-07-19T05:56:03.470Z,2.78
2023-07-19T05:57:03.436Z,2.71
2023-07-19T05:58:03.424Z,2.76
2023-07-19T05:59:03.404Z,2.75
2023-07-19T06:00:14.485Z,2.88
2023-07-19T06:01:03.411Z,2.89
2023-07-19T06:02:03.377Z,2.93
2023-07-19T06:03:03.353Z,2.99
2023-07-19T06:04:03.377Z,3.20
2023-07-19T06:05:03.297Z,3.72
2023-07-19T06:06:03.207Z,2.91
2023-07-19T06:07:03.189Z,3.06
2023-07-19T06:09:03.112Z,2.93
2023-07-19T06:10:03.129Z,3.12
2023-07-19T06:11:03.075Z,3.61
2023-07-19T06:12:03.074Z,4.56
2023-07-19T06:13:03.017Z,7.33
2023-07-19T06:14:02.995Z,8.83
2023-07-19T06:15:02.953Z,9.98
2023-07-19T06:16:02.971Z,10.60
2023-07-19T06:17:02.929Z,12.07
2023-07-19T06:18:02.927Z,13.61
2023-07-19T06:19:02.834Z,14.94
2023-07-19T06:20:02.824Z,16.60
2023-07-19T06:21:02.916Z,16.79
2023-07-19T06:22:02.755Z,17.30
2023-07-19T06:23:02.785Z,17.36
2023-07-19T06:24:02.764Z,17.49
2023-07-19T06:25:02.663Z,18.26
2023-07-19T06:26:05.095Z,17.81
2023-07-19T06:27:02.628Z,17.83
2023-07-19T06:28:02.587Z,17.96
2023-07-19T06:29:02.572Z,18.09
2023-07-19T06:30:02.532Z,18.37
2023-07-19T06:31:02.555Z,19.33
2023-07-19T06:32:02.492Z,19.17
2023-07-19T06:33:05.821Z,19.60
2023-07-19T06:34:02.415Z,19.63
2023-07-19T06:35:02.384Z,19.72
2023-07-19T06:36:02.405Z,19.95
2023-07-19T06:37:02.326Z,20.05
2023-07-19T06:38:02.338Z,20.47
2023-07-19T06:39:02.314Z,20.28
2023-07-19T06:40:02.243Z,20.42
2023-07-19T06:41:02.267Z,19.87
2023-07-19T06:42:02.220Z,19.29
2023-07-19T06:43:02.183Z,18.91
2023-07-19T06:44:02.142Z,18.51
2023-07-19T06:45:02.118Z,17.62
2023-07-19T06:46:02.099Z,17.21
2023-07-19T06:47:02.128Z,16.70
2023-07-19T06:48:02.102Z,16.39
2023-07-19T06:49:01.988Z,15.65
2023-07-19T06:50:01.977Z,14.67
2023-07-19T06:51:01.926Z,14.05
2023-07-19T06:52:01.890Z,13.71
2023-07-19T06:53:01.861Z,13.36
2023-07-19T06:54:14.298Z,13.28
2023-07-19T06:55:02.846Z,13.28
2023-07-19T06:56:01.893Z,13.00
2023-07-19T06:57:01.733Z,12.86
2023-07-19T06:58:01.722Z,12.52
2023-07-19T06:59:01.728Z,12.55
2023-07-19T07:00:01.667Z,12.39
2023-07-19T07:01:01.707Z,12.01
2023-07-19T07:02:01.953Z,11.80
2023-07-19T07:03:01.610Z,11.69
2023-07-19T07:04:01.669Z,11.51
2023-07-19T07:05:01.634Z,11.35
2023-07-19T07:06:04.053Z,11.17
2023-07-19T07:07:01.469Z,11.16
2023-07-19T07:08:01.459Z,11.01
2023-07-19T07:09:01.407Z,10.87
2023-07-19T07:10:01.368Z,10.91
2023-07-19T07:11:01.340Z,10.91
2023-07-19T07:12:01.312Z,11.00
2023-07-19T07:13:01.287Z,10.95
2023-07-19T07:14:01.268Z,11.04
2023-07-19T07:15:01.250Z,11.26
2023-07-19T07:16:01.275Z,11.01
2023-07-19T07:17:01.190Z,10.99
2023-07-19T07:18:01.197Z,10.79
2023-07-19T07:19:01.117Z,10.90
2023-07-19T07:20:01.116Z,10.92
2023-07-19T07:21:01.057Z,10.96
2023-07-19T07:22:01.046Z,11.05
2023-07-19T07:23:01.110Z,11.10
2023-07-19T07:24:01.012Z,11.30
2023-07-19T07:25:00.942Z,11.26
2023-07-19T07:26:00.991Z,11.19
2023-07-19T07:27:00.911Z,11.08
2023-07-19T07:28:00.877Z,10.65
2023-07-19T07:29:00.842Z,10.48
2023-07-19T07:30:00.814Z,10.47
2023-07-19T07:31:00.819Z,10.29
2023-07-19T07:32:00.752Z,10.30
2023-07-19T07:33:00.766Z,10.01
2023-07-19T07:34:00.718Z,9.92
2023-07-19T07:35:00.701Z,9.72
2023-07-19T07:36:00.658Z,9.38
2023-07-19T07:37:00.625Z,9.28
2023-07-19T07:38:00.593Z,9.19
2023-07-19T07:39:00.562Z,8.99
2023-07-19T07:40:00.563Z,8.93
2023-07-19T07:41:00.508Z,8.75
2023-07-19T07:42:00.503Z,8.65
2023-07-19T07:43:00.430Z,8.60
2023-07-19T07:44:00.401Z,8.57
2023-07-19T07:45:00.379Z,8.55
2023-07-19T07:46:00.365Z,8.40
2023-07-19T07:47:00.354Z,8.51
2023-07-19T07:48:00.346Z,8.54
2023-07-19T07:49:00.291Z,8.47
2023-07-19T07:50:00.286Z,8.37
2023-07-19T07:51:00.273Z,8.41
2023-07-19T07:52:00.240Z,8.28
2023-07-19T07:53:11.776Z,8.30
2023-07-19T07:54:01.200Z,8.30
2023-07-19T07:55:00.182Z,8.30
2023-07-19T07:56:00.163Z,8.15
2023-07-19T07:57:00.123Z,8.12
2023-07-19T07:58:00.111Z,8.06
2023-07-19T07:59:00.084Z,8.02
2023-07-19T08:00:00.043Z,8.02
2023-07-19T08:01:00.093Z,8.01
2023-07-19T08:02:00.013Z,7.92
2023-07-19T08:03:00.105Z,7.88
2023-07-19T08:04:00.012Z,7.89
2023-07-19T08:04:59.970Z,7.82
2023-07-19T08:05:59.931Z,7.92
2023-07-19T08:06:59.898Z,7.78
2023-07-19T08:07:59.865Z,7.81
2023-07-19T08:08:59.833Z,7.54
2023-07-19T08:09:59.791Z,7.46
2023-07-19T08:10:59.775Z,7.38
2023-07-19T08:11:59.753Z,7.27
2023-07-19T08:12:59.715Z,7.21
2023-07-19T08:13:59.680Z,7.11
2023-07-19T08:14:59.663Z,6.97
2023-07-19T08:15:59.643Z,7.01
2023-07-19T08:17:02.289Z,6.95
2023-07-19T08:17:59.603Z,7.16
2023-07-19T08:18:59.574Z,7.04
2023-07-19T08:19:59.500Z,7.06
2023-07-19T08:20:59.526Z,7.05
2023-07-19T08:21:59.453Z,6.93
2023-07-19T08:23:00.805Z,6.91
2023-07-19T08:23:59.435Z,6.92
2023-07-19T08:25:08.374Z,6.92
2023-07-19T08:26:00.372Z,6.93
2023-07-19T08:26:59.311Z,6.94
2023-07-19T08:27:59.309Z,6.84
2023-07-19T08:28:59.282Z,6.75
2023-07-19T08:29:59.269Z,6.76
2023-07-19T08:30:59.246Z,6.70
2023-07-19T08:31:59.197Z,6.64
2023-07-19T08:32:59.200Z,6.59
2023-07-19T08:33:59.145Z,6.54
2023-07-19T08:34:59.082Z,6.61
2023-07-19T08:35:59.101Z,6.54
2023-07-19T08:36:59.031Z,6.66
2023-07-19T08:37:59.024Z,6.46
2023-07-19T08:38:58.997Z,6.54
2023-07-19T08:39:58.997Z,6.38
2023-07-19T08:40:58.923Z,6.42
2023-07-19T08:41:59.036Z,6.42
2023-07-19T08:42:58.878Z,6.43
2023-07-19T08:43:58.859Z,6.45
2023-07-19T08:44:58.835Z,6.41
2023-07-19T08:45:58.838Z,6.34
2023-07-19T08:46:58.776Z,6.20
2023-07-19T08:47:58.751Z,6.33
2023-07-19T08:48:58.750Z,6.29
2023-07-19T08:49:58.706Z,6.20
2023-07-19T08:50:58.660Z,6.16
2023-07-19T08:51:58.625Z,6.08
2023-07-19T08:52:58.621Z,5.93
2023-07-19T08:53:58.565Z,5.74
2023-07-19T08:54:58.547Z,5.52
2023-07-19T08:55:58.531Z,5.30
2023-07-19T08:56:58.468Z,5.30
2023-07-19T08:57:58.442Z,5.19
2023-07-19T08:58:58.418Z,4.94
2023-07-19T08:59:58.618Z,4.90
2023-07-19T09:00:58.372Z,4.88
2023-07-19T09:01:58.421Z,4.78
2023-07-19T09:02:58.395Z,4.72
2023-07-19T09:03:58.344Z,4.55
2023-07-19T09:04:58.281Z,4.37
2023-07-19T09:05:58.263Z,4.30
2023-07-19T09:06:58.261Z,4.09
2023-07-19T09:07:58.207Z,3.96
2023-07-19T09:08:58.212Z,3.80
2023-07-19T09:09:58.173Z,3.71
2023-07-19T09:10:58.144Z,3.60
2023-07-19T09:11:58.133Z,3.49
2023-07-19T09:12:58.127Z,3.49
2023-07-19T09:13:58.069Z,3.38
2023-07-19T09:14:58.067Z,3.35
2023-07-19T09:15:58.022Z,3.21
2023-07-19T09:16:57.995Z,3.21
2023-07-19T09:17:58.040Z,3.16
2023-07-19T09:18:58.037Z,3.07
2023-07-19T09:19:57.945Z,3.04
2023-07-19T09:20:57.986Z,3.05
2023-07-19T09:21:57.906Z,2.97
2023-07-19T09:22:57.894Z,2.91
2023-07-19T09:23:57.850Z,2.92
2023-07-19T09:24:57.858Z,2.83
2023-07-19T09:25:57.806Z,2.78
2023-07-19T09:26:57.804Z,2.77
2023-07-19T09:27:57.800Z,2.79
2023-07-19T09:28:57.768Z,2.71
2023-07-19T09:29:57.742Z,2.78
2023-07-19T09:31:00.780Z,2.78
2023-07-19T09:31:58.720Z,2.79
2023-07-19T09:32:57.738Z,2.79
2023-07-19T09:33:57.673Z,2.83
2023-07-19T09:34:57.672Z,2.89
2023-07-19T09:35:57.646Z,2.96
2023-07-19T09:36:57.594Z,2.99
2023-07-19T09:37:57.554Z,3.00
2023-07-19T09:38:57.554Z,3.04
2023-07-19T09:39:57.557Z,3.06
2023-07-19T09:40:57.512Z,3.10
2023-07-19T09:41:57.533Z,3.00
2023-07-19T09:42:57.460Z,2.93
2023-07-19T09:43:57.423Z,2.90
2023-07-19T09:44:57.427Z,2.83
2023-07-19T09:45:57.448Z,2.78
2023-07-19T09:46:57.447Z,2.74
2023-07-19T09:47:57.462Z,2.61
2023-07-19T09:48:57.418Z,2.52
2023-07-19T09:49:57.450Z,2.50
2023-07-19T09:50:57.413Z,2.45
2023-07-19T09:51:57.454Z,2.38
2023-07-19T09:52:57.415Z,2.28
2023-07-19T09:53:57.442Z,2.28
2023-07-19T09:54:57.454Z,2.16
2023-07-19T09:55:57.529Z,2.13
2023-07-19T09:56:57.452Z,2.09
2023-07-19T09:57:57.477Z,2.10
2023-07-19T09:58:57.484Z,2.01
2023-07-19T09:59:57.503Z,2.02
2023-07-19T10:00:57.537Z,2.01
2023-07-19T10:01:57.582Z,1.95
2023-07-19T10:02:57.637Z,2.01
2023-07-19T10:03:57.610Z,1.95
2023-07-19T10:04:57.585Z,1.91
2023-07-19T10:05:57.553Z,1.90
2023-07-19T10:06:57.533Z,1.87
2023-07-19T10:07:57.542Z,1.88
2023-07-19T10:08:57.552Z,1.88
2023-07-19T10:09:57.545Z,1.88
2023-07-19T10:10:57.548Z,1.91
2023-07-19T10:11:57.502Z,1.92
2023-07-19T10:12:57.507Z,1.97
2023-07-19T10:14:57.492Z,2.03
2023-07-19T10:15:57.437Z,2.10
2023-07-19T10:16:57.458Z,2.07
2023-07-19T10:17:57.466Z,2.08
2023-07-19T10:18:57.380Z,2.07
2023-07-19T10:19:57.359Z,2.07
2023-07-19T10:20:58.847Z,2.08
2023-07-19T10:21:57.295Z,2.08
2023-07-19T10:22:57.438Z,2.08
2023-07-19T10:23:57.275Z,2.03
2023-07-19T10:24:57.268Z,2.01
2023-07-19T10:25:57.218Z,1.97
2023-07-19T10:26:57.204Z,1.94
2023-07-19T10:27:57.212Z,1.92
2023-07-19T10:28:57.164Z,1.84
2023-07-19T10:29:57.141Z,1.86
2023-07-19T10:30:57.104Z,1.77
2023-07-19T10:31:57.167Z,1.77
2023-07-19T10:32:57.105Z,1.77
2023-07-19T10:33:57.132Z,1.74
2023-07-19T10:34:57.095Z,1.68
2023-07-19T10:35:57.033Z,1.66
2023-07-19T10:36:56.964Z,1.59
2023-07-19T10:37:57.891Z,1.57
2023-07-19T10:38:56.936Z,1.58
2023-07-19T10:39:57.169Z,1.55
2023-07-19T10:40:56.905Z,1.51
2023-07-19T10:41:56.873Z,1.50
2023-07-19T10:42:56.881Z,1.48
2023-07-19T10:43:56.892Z,1.40
2023-07-19T10:44:56.806Z,1.34
2023-07-19T10:45:56.819Z,1.31
2023-07-19T10:46:56.737Z,1.26
2023-07-19T10:47:56.774Z,1.20
2023-07-19T10:48:56.753Z,1.10
2023-07-19T10:49:56.721Z,1.11
2023-07-19T10:50:56.797Z,1.09
2023-07-19T10:51:56.791Z,1.09
2023-07-19T10:52:56.795Z,1.08
2023-07-19T10:53:56.793Z,1.06
2023-07-19T10:55:07.496Z,1.04
2023-07-19T10:55:57.779Z,1.04
2023-07-19T10:56:56.757Z,1.01
2023-07-19T10:57:56.718Z,1.00
2023-07-19T10:58:56.700Z,0.99
2023-07-19T10:59:56.687Z,0.97
2023-07-19T11:00:56.699Z,0.96
2023-07-19T11:01:56.628Z,0.94
2023-07-19T11:02:56.669Z,0.94
2023-07-19T11:03:56.611Z,0.95
2023-07-19T11:04:56.577Z,0.92
2023-07-19T11:05:56.545Z,0.92
2023-07-19T11:06:56.530Z,0.91
2023-07-19T11:07:56.505Z,0.89
2023-07-19T11:08:56.474Z,0.91
2023-07-19T11:09:56.478Z,0.89
2023-07-19T11:10:56.485Z,0.89
2023-07-19T11:11:56.453Z,0.88
2023-07-19T11:12:56.494Z,0.88
2023-07-19T11:13:56.373Z,0.87
2023-07-19T11:14:56.352Z,0.84
2023-07-19T11:15:56.329Z,0.82
2023-07-19T11:16:56.316Z,0.83
2023-07-19T11:17:56.306Z,0.80
2023-07-19T11:18:56.204Z,0.80
2023-07-19T11:19:56.155Z,0.81
2023-07-19T11:20:56.144Z,0.78
2023-07-19T11:21:56.147Z,0.76
2023-07-19T11:22:56.246Z,0.77
2023-07-19T11:23:56.220Z,0.74
2023-07-19T11:24:56.275Z,0.71
2023-07-19T11:25:56.319Z,0.68
2023-07-19T11:26:56.284Z,0.67
2023-07-19T11:27:56.268Z,0.65
2023-07-19T11:28:56.270Z,0.64
2023-07-19T11:29:56.277Z,0.63
2023-07-19T11:30:56.316Z,0.62
2023-07-19T11:31:56.312Z,0.62
2023-07-19T11:32:56.382Z,0.63
2023-07-19T11:33:56.446Z,0.62
2023-07-19T11:34:56.423Z,0.60
2023-07-19T11:35:56.534Z,0.59
2023-07-19T11:36:56.503Z,0.58
2023-07-19T11:37:56.530Z,0.55
2023-07-19T11:38:56.586Z,0.55
2023-07-19T11:39:56.626Z,0.54
2023-07-19T11:40:56.683Z,0.51
2023-07-19T11:41:56.705Z,0.51
2023-07-19T11:42:56.739Z,0.50
2023-07-19T11:43:56.785Z,0.51
2023-07-19T11:44:56.798Z,0.51
2023-07-19T11:45:56.739Z,0.50
2023-07-19T11:46:56.735Z,0.48
2023-07-19T11:47:56.739Z,0.47
2023-07-19T11:48:56.784Z,0.47
2023-07-19T11:49:56.648Z,0.50
2023-07-19T11:50:56.621Z,0.50
2023-07-19T11:51:56.581Z,0.51
2023-07-19T11:52:56.562Z,0.51
2023-07-19T11:53:56.579Z,0.50
2023-07-19T11:54:56.527Z,0.49
2023-07-19T11:56:02.316Z,0.48
2023-07-19T11:56:57.490Z,0.50
2023-07-19T11:57:56.463Z,0.49
2023-07-19T11:58:56.442Z,0.47
2023-07-19T11:59:56.395Z,0.47
2023-07-19T12:00:56.411Z,0.45
2023-07-19T12:01:56.332Z,0.47
2023-07-19T12:02:56.391Z,0.47
2023-07-19T12:03:56.313Z,0.46
2023-07-19T12:04:56.239Z,0.46
2023-07-19T12:05:56.256Z,0.45
2023-07-19T12:06:56.200Z,0.50
2023-07-19T12:07:56.177Z,0.50
2023-07-19T12:08:56.132Z,0.50
2023-07-19T12:09:56.106Z,0.51
2023-07-19T12:10:56.108Z,0.51
2023-07-19T12:11:56.086Z,0.52
2023-07-19T12:12:56.107Z,0.51
2023-07-19T12:13:56.113Z,0.51
2023-07-19T12:14:56.149Z,0.51
2023-07-19T12:15:56.225Z,0.52
2023-07-19T12:16:56.284Z,0.50
2023-07-19T12:17:56.239Z,0.51
2023-07-19T12:18:56.264Z,0.51
2023-07-19T12:19:56.289Z,0.52
2023-07-19T12:20:56.353Z,0.51
2023-07-19T12:21:56.298Z,0.51
2023-07-19T12:22:56.325Z,0.51
2023-07-19T12:23:59.867Z,0.50
2023-07-19T12:24:56.197Z,0.51
2023-07-19T12:25:56.174Z,0.50
2023-07-19T12:26:56.134Z,0.51
2023-07-19T12:27:56.099Z,0.50
2023-07-19T12:28:56.091Z,0.49
2023-07-19T12:30:02.220Z,0.50
2023-07-19T12:30:57.090Z,0.50
2023-07-19T12:31:55.987Z,0.50
2023-07-19T12:32:55.967Z,0.50
2023-07-19T12:33:55.942Z,0.50
2023-07-19T12:34:55.907Z,0.49
2023-07-19T12:35:55.865Z,0.50
2023-07-19T12:36:55.855Z,0.51
2023-07-19T12:37:55.826Z,0.51
2023-07-19T12:38:55.783Z,0.50
2023-07-19T12:39:55.783Z,0.51
2023-07-19T12:40:55.747Z,0.51
2023-07-19T12:41:55.720Z,0.50
2023-07-19T12:42:55.743Z,0.52
2023-07-19T12:43:55.799Z,0.51
2023-07-19T12:44:55.824Z,0.51
2023-07-19T12:45:55.863Z,0.52
2023-07-19T12:46:55.940Z,0.52
2023-07-19T12:47:56.029Z,0.53
2023-07-19T12:48:55.963Z,0.55
2023-07-19T12:49:55.998Z,0.56
2023-07-19T12:50:56.035Z,0.56
2023-07-19T12:51:56.076Z,0.58
2023-07-19T12:52:56.104Z,0.58
2023-07-19T12:53:56.142Z,0.57
2023-07-19T12:54:56.176Z,0.60
2023-07-19T12:55:56.236Z,0.59
2023-07-19T12:56:56.258Z,0.59
2023-07-19T12:57:56.281Z,0.60
2023-07-19T12:58:56.315Z,0.61
2023-07-19T12:59:56.396Z,0.61
2023-07-19T13:00:56.410Z,0.61
2023-07-19T13:01:56.492Z,0.61
2023-07-19T13:02:56.772Z,0.62
2023-07-19T13:03:56.629Z,0.63
2023-07-19T13:04:56.560Z,0.65
2023-07-19T13:05:56.612Z,0.66
2023-07-19T13:06:56.636Z,0.67
2023-07-19T13:07:56.680Z,0.68
2023-07-19T13:08:56.717Z,0.69
2023-07-19T13:09:56.772Z,0.72
2023-07-19T13:10:56.792Z,0.75
2023-07-19T13:11:56.864Z,0.79
2023-07-19T13:12:56.781Z,0.80
2023-07-19T13:13:56.805Z,0.80
2023-07-19T13:14:56.725Z,0.82
2023-07-19T13:15:56.706Z,0.84
2023-07-19T13:17:11.521Z,0.90
2023-07-19T13:17:57.836Z,0.80